Time;durP1;ratioP1;P1;durP2;ratioP2;P2;SDS_P1;SDS_P2;PMS_P1;PMS_P2;Temp;Humidity;BMP_temperature;BMP_pressure;BME280_temperature;BME280_humidity;BME280_pressure;Samples;Min_cycle;Max_cycle;Signal;HPM_P1;HPM_P2
2024/03/10 00:00:44;;;;;;;103.70;58.30;;;;;;;3.78;71.81;96695.07;108822;1253;109923;-79
2024/03/10 00:03:32;;;;;;;98.30;57.20;;;;;;;3.78;71.96;96696.80;108735;1254;101843;-79
2024/03/10 00:06:00;;;;;;;95.30;55.80;;;;;;;3.78;71.89;96696.47;108709;1254;95651;-79
2024/03/10 00:08:27;;;;;;;97.60;55.80;;;;;;;3.77;71.98;96701.67;108811;1252;95543;-79
2024/03/10 00:10:56;;;;;;;95.00;55.70;;;;;;;3.77;72.05;96702.41;108785;1254;103621;-79
2024/03/10 00:13:24;;;;;;;97.00;54.80;;;;;;;3.77;72.16;96697.14;108857;1253;101585;-79
2024/03/10 00:15:51;;;;;;;100.50;55.20;;;;;;;3.76;72.17;96690.64;108823;1253;100163;-79
2024/03/10 00:18:19;;;;;;;94.30;55.00;;;;;;;3.76;72.38;96692.71;108778;1254;95650;-79
2024/03/10 00:20:47;;;;;;;101.80;55.20;;;;;;;3.76;72.35;96704.58;108852;1253;96050;-79
2024/03/10 00:23:15;;;;;;;99.10;55.30;;;;;;;3.74;72.43;96706.48;108854;1254;102074;-79
2024/03/10 00:25:43;;;;;;;95.50;54.70;;;;;;;3.75;72.46;96703.61;108798;1252;101766;-79
2024/03/10 00:28:11;;;;;;;88.40;50.90;;;;;;;3.75;72.60;96705.17;108779;1252;99771;-79
2024/03/10 00:30:38;;;;;;;92.30;51.40;;;;;;;3.74;72.64;96707.77;108792;1252;95577;-79
2024/03/10 00:33:07;;;;;;;96.20;55.50;;;;;;;3.71;72.64;96709.91;108869;1252;95967;-79
2024/03/10 00:35:34;;;;;;;89.80;51.70;;;;;;;3.69;72.65;96707.56;108837;1254;103586;-79
2024/03/10 00:38:02;;;;;;;86.30;50.50;;;;;;;3.69;72.80;96707.53;108871;1253;101585;-78
2024/03/10 00:40:30;;;;;;;89.40;48.90;;;;;;;3.71;72.69;96710.02;108810;1254;107644;-78
2024/03/10 00:42:58;;;;;;;86.10;50.00;;;;;;;3.73;72.78;96718.02;108831;1253;95610;-78
2024/03/10 00:45:25;;;;;;;84.40;50.40;;;;;;;3.74;72.80;96713.68;108819;1253;96031;-79
2024/03/10 00:47:54;;;;;;;87.80;51.30;;;;;;;3.71;72.84;96712.95;108832;1254;102064;-79
2024/03/10 00:50:22;;;;;;;83.10;48.60;;;;;;;3.67;72.88;96710.75;108832;1254;101669;-79
2024/03/10 00:52:51;;;;;;;84.30;48.60;;;;;;;3.63;73.01;96706.50;108796;1252;99619;-79
2024/03/10 00:55:18;;;;;;;83.60;48.00;;;;;;;3.60;73.03;96701.17;108764;1256;95553;-79
2024/03/10 00:57:46;;;;;;;76.40;45.60;;;;;;;3.59;73.19;96697.10;108856;1252;96063;-79
2024/03/10 01:00:14;;;;;;;80.90;46.30;;;;;;;3.60;73.21;96691.03;108818;1253;103649;-79
2024/03/10 01:02:46;;;;;;;74.40;45.20;;;;;;;3.60;73.22;96686.42;108837;1252;101416;-79
2024/03/10 01:05:13;;;;;;;76.60;42.80;;;;;;;3.59;73.25;96689.54;108816;1252;107548;-79
2024/03/10 01:07:41;;;;;;;74.10;44.70;;;;;;;3.59;73.26;96684.23;108802;1253;95629;-79
2024/03/10 01:10:11;;;;;;;82.00;44.90;;;;;;;3.58;73.26;96683.27;108874;1253;96041;-79
2024/03/10 01:12:39;;;;;;;87.30;49.60;;;;;;;3.54;73.21;96687.58;108843;1253;103786;-79
2024/03/10 01:15:08;;;;;;;88.50;49.20;;;;;;;3.53;73.30;96686.36;108824;1254;101656;-79
2024/03/10 01:17:36;;;;;;;94.70;51.00;;;;;;;3.51;73.31;96684.50;108807;1254;100177;-78
2024/03/10 01:20:06;;;;;;;95.40;51.90;;;;;;;3.47;73.36;96676.94;108809;1253;96263;-79
2024/03/10 01:22:34;;;;;;;86.40;48.40;;;;;;;3.46;73.59;96678.69;108874;1252;95559;-78
2024/03/10 01:25:01;;;;;;;79.90;47.00;;;;;;;3.46;73.61;96678.12;108799;1254;103603;-79
2024/03/10 01:27:29;;;;;;;77.80;46.40;;;;;;;3.46;73.60;96675.05;108811;1253;101489;-79
2024/03/10 01:29:56;;;;;;;73.90;44.80;;;;;;;3.46;73.66;96674.21;108714;1254;100235;-79
2024/03/10 01:32:24;;;;;;;71.10;41.70;;;;;;;3.45;73.71;96672.39;108799;1252;95700;-79
2024/03/10 01:34:53;;;;;;;74.40;42.80;;;;;;;3.44;73.72;96667.73;108865;1254;96212;-79
2024/03/10 01:37:20;;;;;;;68.60;41.80;;;;;;;3.43;73.81;96661.81;108792;1256;103776;-79
2024/03/10 01:39:48;;;;;;;69.10;40.20;;;;;;;3.40;73.86;96660.13;108876;1253;101596;-79
2024/03/10 01:42:16;;;;;;;64.30;37.40;;;;;;;3.36;73.91;96662.47;108811;1253;99218;-79
2024/03/10 01:44:44;;;;;;;58.80;36.70;;;;;;;3.34;73.89;96662.55;108787;1253;95502;-79
2024/03/10 01:47:12;;;;;;;63.90;38.30;;;;;;;3.32;73.88;96662.70;108791;1253;96103;-79
2024/03/10 01:49:40;;;;;;;62.10;36.90;;;;;;;3.32;73.92;96659.97;108875;1253;103578;-79
2024/03/10 01:52:08;;;;;;;59.40;36.90;;;;;;;3.27;73.88;96663.85;108761;1254;101625;-79
2024/03/10 01:54:37;;;;;;;57.20;35.80;;;;;;;3.24;74.01;96661.48;108798;1253;99865;-78
2024/03/10 01:57:06;;;;;;;50.60;33.10;;;;;;;3.22;74.04;96660.14;108779;1253;95554;-78
2024/03/10 01:59:34;;;;;;;51.80;33.10;;;;;;;3.21;74.10;96658.02;108823;1254;95990;-79
2024/03/10 02:02:02;;;;;;;56.30;33.70;;;;;;;3.18;73.96;96657.15;108787;1253;103709;-79
2024/03/10 02:04:29;;;;;;;55.00;34.60;;;;;;;3.15;73.93;96656.95;108832;1254;101614;-78
2024/03/10 02:06:58;;;;;;;49.70;32.50;;;;;;;3.13;73.98;96653.85;108806;1253;100077;-79
2024/03/10 02:09:26;;;;;;;48.80;31.50;;;;;;;3.10;74.04;96654.58;108792;1253;95516;-78
2024/03/10 02:11:54;;;;;;;55.00;32.90;;;;;;;3.06;74.09;96655.75;108807;1254;96023;-79
2024/03/10 02:14:22;;;;;;;47.40;30.70;;;;;;;3.03;74.08;96651.14;108809;1253;103491;-79
2024/03/10 02:16:50;;;;;;;47.30;29.30;;;;;;;3.00;74.13;96644.02;108803;1254;101621;-78
2024/03/10 02:19:18;;;;;;;42.00;29.70;;;;;;;2.97;74.10;96635.89;108858;1254;100082;-78
2024/03/10 02:21:46;;;;;;;45.30;28.00;;;;;;;2.91;74.05;96633.30;108856;1254;95622;-78
2024/03/10 02:24:19;;;;;;;42.50;27.60;;;;;;;2.83;74.20;96633.45;108771;1254;96493;-79
2024/03/10 02:26:47;;;;;;;43.50;29.10;;;;;;;2.78;74.25;96632.89;108845;1254;111544;-78
2024/03/10 02:29:18;;;;;;;44.70;28.70;;;;;;;2.75;74.38;96625.48;108820;1254;101552;-79
2024/03/10 02:48:30;;;;;;;53.20;33.00;;;;;;;2.61;74.93;96619.52;108232;1260;96890;-79
2024/03/10 02:50:58;;;;;;;47.30;29.80;;;;;;;2.60;74.83;96614.53;108692;1251;95990;-79
2024/03/10 02:53:26;;;;;;;44.80;27.80;;;;;;;2.58;74.90;96616.21;108713;1253;103724;-79
2024/03/10 02:55:54;;;;;;;43.90;28.00;;;;;;;2.56;74.88;96617.08;108880;1254;101582;-78
2024/03/10 02:58:22;;;;;;;42.90;29.40;;;;;;;2.53;74.88;96617.92;108775;1252;98940;-78
2024/03/10 03:00:49;;;;;;;46.40;28.60;;;;;;;2.52;74.87;96618.11;108784;1254;96832;-79
2024/03/10 03:03:17;;;;;;;39.90;25.60;;;;;;;2.50;75.03;96616.67;108819;1254;95726;-79
2024/03/10 03:05:45;;;;;;;39.70;26.80;;;;;;;2.49;75.03;96616.70;108805;1254;103829;-79
2024/03/10 03:08:13;;;;;;;40.60;25.80;;;;;;;2.47;75.04;96618.43;108840;1254;101625;-79
2024/03/10 03:10:41;;;;;;;35.20;24.40;;;;;;;2.46;75.20;96615.25;108770;1254;100079;-78
2024/03/10 03:13:09;;;;;;;37.90;25.80;;;;;;;2.45;75.21;96608.75;108778;1254;95566;-78
2024/03/10 03:15:36;;;;;;;39.50;25.30;;;;;;;2.45;75.22;96602.70;108800;1254;95970;-79
2024/03/10 03:18:04;;;;;;;39.00;25.30;;;;;;;2.45;75.32;96602.40;108820;1254;103801;-78
2024/03/10 03:20:33;;;;;;;35.60;23.70;;;;;;;2.44;75.33;96604.47;108852;1252;101546;-79
2024/03/10 03:23:00;;;;;;;38.60;25.20;;;;;;;2.43;75.31;96604.05;108745;1251;98567;-78
2024/03/10 03:25:30;;;;;;;40.50;25.00;;;;;;;2.45;75.34;96605.40;108768;1254;95702;-78
2024/03/10 03:27:57;;;;;;;45.60;31.20;;;;;;;2.43;75.38;96606.34;108820;1254;95932;-78
2024/03/10 03:30:25;;;;;;;46.20;29.20;;;;;;;2.38;75.32;96605.41;108831;1254;102450;-78
2024/03/10 03:32:54;;;;;;;41.90;27.00;;;;;;;2.35;75.41;96601.30;108733;1253;100342;-79
2024/03/10 03:35:22;;;;;;;43.10;27.50;;;;;;;2.34;75.43;96599.27;108807;1254;100100;-79
2024/03/10 03:37:50;;;;;;;42.70;27.40;;;;;;;2.34;75.44;96596.61;108761;1252;95666;-79
2024/03/10 03:40:19;;;;;;;40.50;26.10;;;;;;;2.33;75.46;96597.23;108864;1253;96795;-79
2024/03/10 03:42:46;;;;;;;40.50;26.30;;;;;;;2.31;75.52;96592.13;108830;1253;103611;-79
2024/03/10 03:45:14;;;;;;;39.30;25.10;;;;;;;2.31;75.55;96592.73;108780;1254;101017;-79
2024/03/10 03:47:44;;;;;;;40.20;25.70;;;;;;;2.30;75.72;96591.61;108847;1253;99622;-79
2024/03/10 03:50:11;;;;;;;38.70;24.20;;;;;;;2.28;75.67;96591.12;108802;1253;96007;-79
2024/03/10 03:52:39;;;;;;;36.80;24.60;;;;;;;2.27;75.77;96587.98;108787;1252;96045;-79
2024/03/10 03:55:07;;;;;;;38.80;26.00;;;;;;;2.26;75.75;96584.56;108832;1254;101868;-79
2024/03/10 03:57:34;;;;;;;38.60;25.50;;;;;;;2.24;75.73;96583.01;108798;1252;101570;-79
2024/03/10 04:00:05;;;;;;;37.90;25.20;;;;;;;2.20;75.60;96586.50;108837;1252;100083;-79
2024/03/10 04:02:33;;;;;;;36.60;23.70;;;;;;;2.15;75.72;96581.96;108825;1252;95656;-78
2024/03/10 04:05:07;;;;;;;35.60;25.10;;;;;;;2.13;75.75;96579.41;108766;1253;96560;-79
2024/03/10 04:07:35;;;;;;;39.20;25.70;;;;;;;2.11;75.76;96577.00;108795;1253;102596;-78
2024/03/10 04:10:02;;;;;;;37.80;24.90;;;;;;;2.08;75.82;96577.41;108814;1253;101619;-79
2024/03/10 04:12:30;;;;;;;38.40;26.00;;;;;;;2.06;75.81;96569.55;108792;1253;99622;-79
2024/03/10 04:14:58;;;;;;;35.30;24.60;;;;;;;2.04;75.83;96557.33;108804;1253;95549;-79
2024/03/10 04:17:26;;;;;;;35.00;24.30;;;;;;;2.02;75.75;96548.20;108844;1254;96388;-79
2024/03/10 04:19:53;;;;;;;35.80;25.60;;;;;;;2.00;75.81;96551.14;108837;1254;102727;-79
2024/03/10 04:22:21;;;;;;;36.30;25.20;;;;;;;1.95;75.86;96551.83;108845;1254;101648;-79
2024/03/10 04:24:49;;;;;;;38.20;26.00;;;;;;;1.89;76.01;96548.50;108818;1253;98843;-79
2024/03/10 04:27:17;;;;;;;36.50;25.50;;;;;;;1.86;76.11;96550.67;108812;1253;95627;-79
2024/03/10 04:29:46;;;;;;;39.70;24.70;;;;;;;1.81;76.24;96551.50;108833;1254;95958;-79
2024/03/10 04:32:14;;;;;;;35.10;22.30;;;;;;;1.79;76.32;96548.95;108867;1252;102502;-78
2024/03/10 04:34:42;;;;;;;32.80;21.70;;;;;;;1.77;76.28;96544.48;108802;1253;101440;-79
2024/03/10 04:37:10;;;;;;;32.70;21.80;;;;;;;1.75;76.20;96547.55;108807;1254;100172;-79
2024/03/10 04:39:37;;;;;;;37.70;26.10;;;;;;;1.73;76.25;96549.40;108829;1253;95520;-79
2024/03/10 04:42:05;;;;;;;37.10;23.80;;;;;;;1.73;76.36;96545.51;108844;1254;97001;-79
2024/03/10 04:44:33;;;;;;;36.00;24.10;;;;;;;1.73;76.36;96544.52;108871;1251;102158;-79
2024/03/10 04:47:01;;;;;;;39.60;24.70;;;;;;;1.71;76.24;96551.48;108874;1253;101611;-79
2024/03/10 04:49:29;;;;;;;38.00;24.30;;;;;;;1.70;76.16;96552.98;108768;1254;100938;-78
2024/03/10 04:51:56;;;;;;;42.50;25.00;;;;;;;1.70;76.24;96549.09;108781;1252;95622;-78
2024/03/10 04:54:24;;;;;;;39.00;24.20;;;;;;;1.63;76.34;96542.50;108835;1252;96032;-79
2024/03/10 04:56:53;;;;;;;37.80;23.30;;;;;;;1.57;76.43;96548.33;108780;1253;103535;-79
2024/03/10 04:59:21;;;;;;;35.10;23.10;;;;;;;1.55;76.45;96553.63;108883;1252;101560;-79
2024/03/10 05:01:52;;;;;;;40.70;24.20;;;;;;;1.52;76.52;96553.64;108766;1253;99385;-79
2024/03/10 05:04:19;;;;;;;38.80;23.80;;;;;;;1.48;76.51;96553.75;108827;1253;96156;-79
2024/03/10 05:06:47;;;;;;;37.20;23.10;;;;;;;1.46;76.51;96551.34;108876;1253;96064;-79
2024/03/10 05:09:15;;;;;;;36.90;23.20;;;;;;;1.44;76.43;96554.21;108799;1254;103625;-79
2024/03/10 05:11:42;;;;;;;36.20;23.30;;;;;;;1.42;76.38;96556.93;108821;1252;101643;-79
2024/03/10 05:14:10;;;;;;;38.30;22.60;;;;;;;1.40;76.39;96559.83;108724;1253;100137;-78
2024/03/10 05:16:38;;;;;;;35.70;23.10;;;;;;;1.39;76.41;96554.52;108850;1253;96261;-79
2024/03/10 05:19:08;;;;;;;35.00;21.70;;;;;;;1.36;76.39;96563.10;108810;1253;96013;-79
2024/03/10 05:21:36;;;;;;;32.40;21.40;;;;;;;1.37;76.49;96565.20;108783;1254;103696;-78
2024/03/10 05:24:03;;;;;;;29.40;20.10;;;;;;;1.36;76.46;96566.32;108769;1254;100530;-78
2024/03/10 05:26:31;;;;;;;32.60;21.10;;;;;;;1.33;76.49;96570.16;108769;1252;100134;-78
2024/03/10 05:28:59;;;;;;;30.70;20.70;;;;;;;1.32;76.61;96573.36;108778;1253;95510;-78
2024/03/10 05:31:31;;;;;;;33.80;22.30;;;;;;;1.29;76.70;96577.90;108744;1254;95935;-78
2024/03/10 05:33:59;;;;;;;31.30;21.30;;;;;;;1.30;76.85;96582.15;108807;1254;102657;-78
2024/03/10 05:36:28;;;;;;;33.00;22.90;;;;;;;1.29;76.94;96581.89;108845;1254;101481;-78
2024/03/10 05:38:56;;;;;;;35.60;23.70;;;;;;;1.26;76.97;96579.73;108743;1253;100184;-78
2024/03/10 05:41:24;;;;;;;34.70;22.90;;;;;;;1.26;76.98;96578.67;108845;1252;95561;-78
2024/03/10 05:43:52;;;;;;;37.00;26.80;;;;;;;1.26;77.13;96571.39;108879;1253;95997;-79
2024/03/10 05:46:19;;;;;;;39.20;26.40;;;;;;;1.26;77.26;96565.84;108802;1252;103691;-79
2024/03/10 05:48:47;;;;;;;34.20;23.80;;;;;;;1.28;77.37;96566.41;108815;1253;100340;-78
2024/03/10 05:51:15;;;;;;;40.70;25.60;;;;;;;1.30;77.45;96571.48;108814;1252;99982;-78
2024/03/10 05:53:43;;;;;;;38.60;26.10;;;;;;;1.32;77.51;96567.48;108724;1252;95546;-78
2024/03/10 05:56:11;;;;;;;38.40;25.80;;;;;;;1.35;77.58;96567.89;108770;1252;96062;-79
2024/03/10 05:58:39;;;;;;;40.90;26.70;;;;;;;1.36;77.62;96567.22;108799;1253;111300;-78
2024/03/10 06:01:07;;;;;;;37.60;24.90;;;;;;;1.38;77.69;96565.18;108854;1252;101579;-78
2024/03/10 06:03:35;;;;;;;43.50;28.40;;;;;;;1.40;77.81;96569.63;108877;1253;99843;-78
2024/03/10 06:06:03;;;;;;;45.50;29.80;;;;;;;1.42;77.82;96571.52;108799;1253;95546;-78
2024/03/10 06:08:31;;;;;;;41.10;27.60;;;;;;;1.44;77.88;96568.78;108790;1254;96007;-78
2024/03/10 06:10:58;;;;;;;41.70;27.50;;;;;;;1.45;77.84;96562.73;108834;1253;112265;-78
2024/03/10 06:13:26;;;;;;;39.50;27.00;;;;;;;1.47;77.96;96562.06;108808;1252;100016;-79
2024/03/10 06:15:54;;;;;;;42.10;29.10;;;;;;;1.49;78.02;96559.17;108812;1252;100048;-79
2024/03/10 06:18:24;;;;;;;41.40;25.80;;;;;;;1.53;78.15;96559.29;108818;1251;95904;-79
2024/03/10 06:26:23;;;;;;;43.10;29.00;;;;;;;1.66;78.31;96570.34;108841;1253;100368;-79
2024/03/10 06:28:51;;;;;;;40.20;26.70;;;;;;;1.72;78.30;96572.56;108826;1253;100004;-79
2024/03/10 06:31:20;;;;;;;36.80;25.70;;;;;;;1.80;78.24;96571.47;108801;1253;96313;-79
2024/03/10 06:33:49;;;;;;;38.90;26.60;;;;;;;1.88;78.30;96565.10;108884;1252;95936;-79
2024/03/10 06:36:17;;;;;;;40.90;27.20;;;;;;;1.95;78.39;96559.19;108807;1253;104020;-79
2024/03/10 06:38:46;;;;;;;41.80;29.10;;;;;;;2.00;78.37;96553.77;108822;1253;101648;-79
2024/03/10 06:41:13;;;;;;;41.40;29.80;;;;;;;2.06;78.27;96555.66;108743;1252;99011;-79
2024/03/10 06:43:43;;;;;;;43.70;31.00;;;;;;;2.13;78.36;96554.33;108812;1253;96045;-80
2024/03/10 06:46:10;;;;;;;43.40;29.10;;;;;;;2.20;78.31;96544.97;108769;1253;96023;-79
2024/03/10 06:48:38;;;;;;;37.50;26.20;;;;;;;2.29;78.24;96548.71;108824;1252;103721;-79
2024/03/10 06:51:06;;;;;;;37.90;25.50;;;;;;;2.36;78.22;96552.48;108760;1253;101822;-79
2024/03/10 06:53:34;;;;;;;41.20;27.50;;;;;;;2.42;78.11;96547.16;108766;1252;98931;-79
2024/03/10 06:56:03;;;;;;;35.20;24.30;;;;;;;2.50;78.31;96545.48;108812;1253;95585;-79
2024/03/10 06:58:31;;;;;;;36.30;24.20;;;;;;;2.57;78.35;96545.65;108834;1252;95572;-79
2024/03/10 07:00:59;;;;;;;39.20;24.90;;;;;;;2.63;78.22;96548.45;108792;1251;103783;-80
2024/03/10 07:03:27;;;;;;;37.40;23.70;;;;;;;2.72;78.16;96535.80;108809;1253;109144;-79
2024/03/10 07:05:56;;;;;;;35.90;23.80;;;;;;;2.80;78.28;96527.34;108816;1253;99953;-79
2024/03/10 07:08:24;;;;;;;35.60;24.20;;;;;;;2.89;78.41;96524.51;108773;1253;95594;-80
2024/03/10 07:10:51;;;;;;;34.50;23.10;;;;;;;2.98;78.41;96530.91;108870;1252;96000;-79
2024/03/10 07:13:19;;;;;;;37.40;22.60;;;;;;;3.03;78.13;96532.32;108807;1253;102533;-80
2024/03/10 07:15:47;;;;;;;31.40;23.00;;;;;;;3.10;78.19;96535.29;108845;1252;101529;-79
2024/03/10 07:18:15;;;;;;;37.80;22.40;;;;;;;3.18;78.32;96533.84;108774;1253;99870;-79
2024/03/10 07:20:43;;;;;;;40.70;24.40;;;;;;;3.29;78.14;96533.00;108799;1253;95985;-79
2024/03/10 07:23:11;;;;;;;36.20;23.00;;;;;;;3.37;78.07;96531.80;108834;1252;96075;-79
2024/03/10 07:25:39;;;;;;;39.00;22.70;;;;;;;3.45;77.98;96528.61;108838;1252;102635;-79
2024/03/10 07:28:06;;;;;;;32.40;20.90;;;;;;;3.54;77.92;96529.29;108827;1253;100141;-80
2024/03/10 07:30:34;;;;;;;40.30;26.30;;;;;;;3.63;77.78;96529.25;108839;1252;99072;-80
2024/03/10 07:33:02;;;;;;;36.30;24.10;;;;;;;3.75;77.91;96530.45;108810;1253;95763;-80
2024/03/10 07:35:30;;;;;;;32.10;20.20;;;;;;;3.89;77.97;96527.55;108830;1253;96048;-79
2024/03/10 07:37:58;;;;;;;28.20;19.30;;;;;;;4.03;77.85;96521.39;108826;1252;103690;-79
2024/03/10 07:40:25;;;;;;;30.10;19.50;;;;;;;4.17;77.84;96519.79;108860;1252;101643;-80
2024/03/10 07:42:53;;;;;;;25.30;17.30;;;;;;;4.31;77.62;96514.09;108843;1252;98910;-79
2024/03/10 07:45:21;;;;;;;23.80;16.30;;;;;;;4.43;77.27;96515.63;108807;1252;95892;-79
2024/03/10 07:47:49;;;;;;;24.80;16.40;;;;;;;4.55;77.16;96512.30;108837;1252;96010;-80
2024/03/10 07:50:19;;;;;;;27.20;17.60;;;;;;;4.67;76.89;96514.98;108838;1252;103716;-79
2024/03/10 07:52:47;;;;;;;23.50;15.10;;;;;;;4.76;76.60;96511.00;108750;1252;101689;-80
2024/03/10 07:55:16;;;;;;;25.70;17.80;;;;;;;4.86;76.52;96509.40;108816;1253;98630;-79
2024/03/10 07:57:43;;;;;;;24.00;15.70;;;;;;;4.96;76.38;96505.59;108780;1252;95625;-80
2024/03/10 08:00:12;;;;;;;22.90;16.20;;;;;;;5.03;76.12;96506.09;108842;1253;96354;-79
2024/03/10 08:02:41;;;;;;;25.40;16.80;;;;;;;5.12;76.04;96508.14;108804;1251;103787;-79
2024/03/10 08:05:12;;;;;;;27.20;17.60;;;;;;;5.20;75.95;96502.91;108833;1253;101390;-80
2024/03/10 08:07:41;;;;;;;24.80;16.60;;;;;;;5.31;75.85;96496.33;108827;1252;100136;-79
2024/03/10 08:10:12;;;;;;;28.00;17.00;;;;;;;5.43;75.80;96491.05;108793;1253;95614;-80
2024/03/10 08:12:42;;;;;;;23.90;16.00;;;;;;;5.57;75.86;96487.91;108864;1253;96011;-81
2024/03/10 08:15:12;;;;;;;22.20;14.90;;;;;;;5.70;75.46;96483.29;108825;1252;103690;-80
2024/03/10 08:17:40;;;;;;;24.60;14.80;;;;;;;5.89;75.36;96477.16;108792;1252;100110;-80
2024/03/10 08:20:13;;;;;;;20.70;14.70;;;;;;;6.17;75.10;96472.23;108810;1252;98593;-80
2024/03/10 08:22:42;;;;;;;24.60;14.10;;;;;;;6.54;74.95;96465.65;108812;1253;95544;-80
2024/03/10 08:25:10;;;;;;;23.20;15.10;;;;;;;7.07;74.68;96463.45;108794;1254;96007;-80
2024/03/10 08:27:38;;;;;;;18.50;13.20;;;;;;;7.67;74.35;96464.98;108805;1253;102185;-82
2024/03/10 08:30:09;;;;;;;19.20;12.20;;;;;;;8.24;73.53;96457.00;108828;1251;100377;-80
2024/03/10 08:32:37;;;;;;;16.60;12.30;;;;;;;8.74;72.55;96446.88;108827;1252;98714;-80
2024/03/10 08:35:07;;;;;;;15.30;10.60;;;;;;;9.07;71.14;96438.36;108826;1252;95512;-80
2024/03/10 08:37:40;;;;;;;15.30;10.10;;;;;;;9.29;70.15;96438.75;108836;1252;97088;-81
2024/03/10 08:40:11;;;;;;;13.30;9.30;;;;;;;9.56;69.28;96441.91;108836;1253;102143;-82
2024/03/10 08:42:39;;;;;;;13.00;10.00;;;;;;;9.85;68.94;96444.82;108843;1253;101643;-82
2024/03/10 08:45:08;;;;;;;16.20;10.70;;;;;;;10.17;68.73;96436.34;108823;1252;98786;-81
2024/03/10 08:47:36;;;;;;;18.50;11.30;;;;;;;10.54;68.59;96429.25;108759;1253;95603;-82
2024/03/10 08:50:07;;;;;;;16.30;11.30;;;;;;;10.91;67.75;96417.06;108830;1253;96005;-81
2024/03/10 08:52:36;;;;;;;16.00;10.40;;;;;;;11.24;67.47;96412.20;108760;1252;102569;-82
2024/03/10 08:55:13;;;;;;;15.50;10.00;;;;;;;11.59;66.90;96407.20;108688;1253;100620;-81
2024/03/10 08:57:41;;;;;;;11.70;8.70;;;;;;;11.89;66.24;96396.80;108698;1253;100107;-79
2024/03/10 09:00:10;;;;;;;12.40;8.80;;;;;;;12.14;65.63;96394.25;108747;1253;95659;-81
2024/03/10 09:02:39;;;;;;;10.60;7.40;;;;;;;12.40;65.22;96392.23;108794;1253;96003;-81
2024/03/10 09:05:07;;;;;;;11.30;8.00;;;;;;;12.64;64.50;96384.25;108837;1252;103718;-80
2024/03/10 09:07:35;;;;;;;6.60;5.70;;;;;;;12.83;63.85;96384.25;108859;1252;101357;-80
2024/03/10 09:10:04;;;;;;;6.30;5.30;;;;;;;13.03;63.02;96387.77;108797;1252;100227;-80
2024/03/10 09:12:32;;;;;;;6.10;4.80;;;;;;;13.21;61.89;96389.44;108787;1253;95899;-82
2024/03/10 09:15:00;;;;;;;6.50;4.50;;;;;;;13.44;61.09;96392.97;108840;1252;95766;-81
2024/03/10 09:17:29;;;;;;;7.50;5.20;;;;;;;13.72;58.86;96390.45;108896;1253;103854;-80
2024/03/10 09:19:58;;;;;;;6.80;5.20;;;;;;;13.84;58.36;96389.64;108820;1253;101423;-82
2024/03/10 09:22:26;;;;;;;5.50;4.70;;;;;;;13.96;58.32;96392.15;108765;1252;98369;-81
2024/03/10 09:24:54;;;;;;;6.40;4.90;;;;;;;14.16;57.82;96386.55;108787;1252;95659;-80
2024/03/10 09:27:22;;;;;;;6.80;4.40;;;;;;;14.30;56.15;96383.05;108810;1251;95970;-82
2024/03/10 09:29:51;;;;;;;5.50;4.90;;;;;;;14.51;55.77;96384.70;108850;1253;111580;-83
2024/03/10 09:32:22;;;;;;;7.20;4.70;;;;;;;14.63;55.31;96380.23;108825;1253;101618;-82
2024/03/10 09:34:51;;;;;;;6.20;4.50;;;;;;;14.79;55.46;96376.36;108829;1252;100175;-81
2024/03/10 09:37:18;;;;;;;5.00;4.30;;;;;;;14.97;54.15;96381.47;108804;1252;95994;-81
2024/03/10 09:39:46;;;;;;;6.60;4.80;;;;;;;15.24;54.11;96376.80;108857;1253;95611;-81
2024/03/10 09:42:14;;;;;;;5.60;4.10;;;;;;;15.45;52.94;96378.13;108853;1253;103677;-81
2024/03/10 09:44:45;;;;;;;6.50;4.90;;;;;;;15.50;52.32;96378.20;108834;1253;100339;-82
2024/03/10 09:47:14;;;;;;;4.90;4.20;;;;;;;15.65;51.69;96374.58;108827;1253;100170;-81
2024/03/10 09:49:43;;;;;;;6.30;5.20;;;;;;;15.90;51.46;96367.39;108851;1253;96048;-80
2024/03/10 09:52:11;;;;;;;5.50;4.60;;;;;;;15.98;49.66;96367.45;108842;1252;96295;-81
2024/03/10 09:54:39;;;;;;;10.50;5.00;;;;;;;15.88;49.99;96369.39;108800;1253;103650;-80
2024/03/10 09:57:08;;;;;;;6.20;5.00;;;;;;;15.80;50.14;96372.92;108831;1252;100362;-80
2024/03/10 09:59:43;;;;;;;6.10;4.80;;;;;;;15.69;48.61;96375.84;108767;1253;100059;-80
2024/03/10 10:02:23;;;;;;;7.70;5.20;;;;;;;15.59;49.53;96381.15;108711;1252;183953;-80
2024/03/10 10:04:58;;;;;;;5.80;4.70;;;;;;;15.60;48.96;96371.52;108836;1253;96225;-79
2024/03/10 10:07:27;;;;;;;6.10;4.90;;;;;;;15.57;47.76;96368.34;108858;1252;102387;-80
2024/03/10 10:09:59;;;;;;;7.00;5.60;;;;;;;15.45;48.27;96370.08;108833;1252;101230;-80
2024/03/10 10:12:28;;;;;;;6.50;5.20;;;;;;;15.39;50.02;96362.08;108854;1252;107834;-80
2024/03/10 10:14:55;;;;;;;6.40;5.20;;;;;;;15.39;49.96;96361.75;108870;1252;95529;-81
2024/03/10 10:17:25;;;;;;;6.60;5.60;;;;;;;15.40;50.03;96359.20;108888;1252;95884;-80
2024/03/10 10:19:52;;;;;;;8.10;5.50;;;;;;;15.42;50.14;96361.77;108876;1252;102050;-81
2024/03/10 10:22:21;;;;;;;7.90;6.00;;;;;;;15.38;49.75;96361.41;108848;1251;100008;-81
2024/03/10 10:25:03;;;;;;;7.60;5.50;;;;;;;15.40;49.83;96360.77;108819;1252;98944;-80
2024/03/10 10:27:31;;;;;;;8.20;5.40;;;;;;;15.48;49.67;96361.55;108779;1252;96749;-80
2024/03/10 10:29:59;;;;;;;6.90;5.40;;;;;;;15.51;49.84;96358.84;108866;1252;95867;-81
2024/03/10 10:32:26;;;;;;;6.70;5.30;;;;;;;15.57;50.35;96357.95;108811;1253;103623;-81
2024/03/10 10:34:56;;;;;;;7.20;5.30;;;;;;;15.56;49.83;96355.90;108858;1252;100354;-80
2024/03/10 10:37:24;;;;;;;7.90;5.00;;;;;;;15.49;49.92;96360.91;108753;1252;100179;-81
2024/03/10 10:39:52;;;;;;;6.10;5.20;;;;;;;15.39;50.09;96360.81;108818;1252;95580;-80
2024/03/10 10:42:21;;;;;;;7.70;5.70;;;;;;;15.36;50.51;96362.92;108831;1253;95619;-81
2024/03/10 10:44:48;;;;;;;8.50;5.30;;;;;;;15.35;49.96;96359.55;108881;1252;102501;-81
2024/03/10 10:47:18;;;;;;;7.50;5.60;;;;;;;15.23;49.79;96357.48;108799;1252;100078;-79
2024/03/10 10:49:49;;;;;;;5.40;4.80;;;;;;;15.07;49.02;96352.33;108809;1251;98959;-81
2024/03/10 10:52:17;;;;;;;7.20;4.80;;;;;;;14.82;48.62;96351.98;108766;1253;95670;-80
2024/03/10 10:54:45;;;;;;;5.80;4.50;;;;;;;14.56;48.54;96355.41;108806;1252;96106;-81
2024/03/10 10:57:15;;;;;;;6.30;5.20;;;;;;;14.31;49.06;96355.33;108840;1252;103467;-80
2024/03/10 10:59:49;;;;;;;6.10;4.70;;;;;;;14.13;49.69;96360.23;108838;1252;100317;-82
2024/03/10 11:02:19;;;;;;;6.20;5.10;;;;;;;14.02;50.15;96364.05;108778;1253;99071;-82
2024/03/10 11:04:47;;;;;;;5.90;4.80;;;;;;;13.98;50.39;96367.27;108772;1252;95605;-81
2024/03/10 11:07:16;;;;;;;5.60;4.60;;;;;;;13.99;50.47;96369.50;108851;1253;95853;-80
2024/03/10 11:09:44;;;;;;;5.20;4.70;;;;;;;14.01;50.34;96364.61;108765;1251;103559;-81
2024/03/10 11:12:20;;;;;;;6.10;5.20;;;;;;;14.01;50.51;96363.81;108810;1251;101672;-80
2024/03/10 11:14:50;;;;;;;6.00;4.90;;;;;;;13.99;50.47;96360.34;108750;1252;100064;-80
2024/03/10 11:17:19;;;;;;;8.00;4.80;;;;;;;13.95;50.38;96359.96;108743;1252;95658;-80
2024/03/10 11:19:53;;;;;;;5.30;4.60;;;;;;;13.92;50.75;96360.90;108822;1251;95922;-80
2024/03/10 11:22:27;;;;;;;6.00;4.60;;;;;;;13.87;50.43;96358.91;108710;1251;103796;-80
2024/03/10 11:25:11;;;;;;;5.10;4.30;;;;;;;13.84;51.15;96358.88;108799;1253;101442;-79
2024/03/10 11:27:44;;;;;;;5.10;4.20;;;;;;;13.86;51.19;96359.02;108777;1253;100012;-78
2024/03/10 11:30:40;;;;;;;5.30;4.00;;;;;;;13.98;51.48;96352.71;108841;1252;95584;-80
2024/03/10 11:33:11;;;;;;;6.10;4.30;;;;;;;14.20;51.90;96347.95;108790;1253;95897;-80
2024/03/10 11:35:39;;;;;;;6.40;4.00;;;;;;;14.45;52.13;96348.70;108884;1252;102653;-80
2024/03/10 11:38:09;;;;;;;6.50;4.10;;;;;;;14.60;51.37;96344.23;108810;1252;101633;-79
2024/03/10 11:40:37;;;;;;;5.10;3.70;;;;;;;14.61;50.62;96342.08;108861;1252;99058;-80
2024/03/10 11:43:04;;;;;;;5.30;4.10;;;;;;;14.61;50.95;96339.73;108798;1253;96198;-80